sensor_id;sensor_type;location;lat;lon;timestamp;temperature;humidity
53962;DHT22;39868;53.398;6.564;2022-07-06T00:00:24;17.60;64.30
53962;DHT22;39868;53.398;6.564;2022-07-06T00:02:51;17.60;64.20
53962;DHT22;39868;53.398;6.564;2022-07-06T00:05:19;17.60;64.10
53962;DHT22;39868;53.398;6.564;2022-07-06T00:07:46;17.60;64.00
53962;DHT22;39868;53.398;6.564;2022-07-06T00:10:14;17.60;64.00
53962;DHT22;39868;53.398;6.564;2022-07-06T00:12:41;17.50;63.50
53962;DHT22;39868;53.398;6.564;2022-07-06T00:15:09;17.50;63.80
53962;DHT22;39868;53.398;6.564;2022-07-06T00:17:36;17.60;63.70
53962;DHT22;39868;53.398;6.564;2022-07-06T00:20:04;17.50;63.70
53962;DHT22;39868;53.398;6.564;2022-07-06T00:22:32;17.60;63.90
53962;DHT22;39868;53.398;6.564;2022-07-06T00:24:59;17.50;64.00
53962;DHT22;39868;53.398;6.564;2022-07-06T00:27:26;17.60;64.00
53962;DHT22;39868;53.398;6.564;2022-07-06T00:29:54;17.50;64.10
53962;DHT22;39868;53.398;6.564;2022-07-06T00:32:21;17.50;64.20
53962;DHT22;39868;53.398;6.564;2022-07-06T00:34:48;17.60;64.30
53962;DHT22;39868;53.398;6.564;2022-07-06T00:37:16;17.50;64.30
53962;DHT22;39868;53.398;6.564;2022-07-06T00:39:44;17.60;64.50
53962;DHT22;39868;53.398;6.564;2022-07-06T00:42:11;17.60;64.50
53962;DHT22;39868;53.398;6.564;2022-07-06T00:44:39;17.60;64.70
53962;DHT22;39868;53.398;6.564;2022-07-06T00:47:06;17.60;64.70
53962;DHT22;39868;53.398;6.564;2022-07-06T00:49:35;17.60;63.80
53962;DHT22;39868;53.398;6.564;2022-07-06T00:52:21;17.60;63.70
53962;DHT22;39868;53.398;6.564;2022-07-06T00:54:49;17.60;63.60
53962;DHT22;39868;53.398;6.564;2022-07-06T00:57:17;17.70;63.60
53962;DHT22;39868;53.398;6.564;2022-07-06T00:59:44;17.60;63.70
53962;DHT22;39868;53.398;6.564;2022-07-06T01:02:11;17.70;63.70
53962;DHT22;39868;53.398;6.564;2022-07-06T01:04:39;17.70;63.50
53962;DHT22;39868;53.398;6.564;2022-07-06T01:07:07;17.70;63.10
53962;DHT22;39868;53.398;6.564;2022-07-06T01:09:34;17.70;62.80
53962;DHT22;39868;53.398;6.564;2022-07-06T01:12:02;17.70;62.80
53962;DHT22;39868;53.398;6.564;2022-07-06T01:14:29;17.70;62.20
53962;DHT22;39868;53.398;6.564;2022-07-06T01:16:57;17.70;62.00
53962;DHT22;39868;53.398;6.564;2022-07-06T01:19:25;17.70;61.80
53962;DHT22;39868;53.398;6.564;2022-07-06T01:21:52;17.70;62.00
53962;DHT22;39868;53.398;6.564;2022-07-06T01:24:19;17.70;62.20
53962;DHT22;39868;53.398;6.564;2022-07-06T01:26:47;17.70;62.40
53962;DHT22;39868;53.398;6.564;2022-07-06T01:29:15;17.70;62.30
53962;DHT22;39868;53.398;6.564;2022-07-06T01:31:47;17.70;62.20
53962;DHT22;39868;53.398;6.564;2022-07-06T01:34:19;17.70;61.90
53962;DHT22;39868;53.398;6.564;2022-07-06T01:36:46;17.70;62.20
53962;DHT22;39868;53.398;6.564;2022-07-06T01:39:14;17.70;62.30
53962;DHT22;39868;53.398;6.564;2022-07-06T01:41:42;17.70;62.30
53962;DHT22;39868;53.398;6.564;2022-07-06T01:44:09;17.70;62.30
53962;DHT22;39868;53.398;6.564;2022-07-06T01:46:38;17.70;62.10
53962;DHT22;39868;53.398;6.564;2022-07-06T01:49:07;17.70;61.70
53962;DHT22;39868;53.398;6.564;2022-07-06T01:51:35;17.60;61.70
53962;DHT22;39868;53.398;6.564;2022-07-06T01:54:02;17.60;61.70
53962;DHT22;39868;53.398;6.564;2022-07-06T01:56:29;17.60;61.40
53962;DHT22;39868;53.398;6.564;2022-07-06T01:59:01;17.50;61.30
53962;DHT22;39868;53.398;6.564;2022-07-06T02:01:28;17.50;61.70
53962;DHT22;39868;53.398;6.564;2022-07-06T02:03:55;17.40;61.70
53962;DHT22;39868;53.398;6.564;2022-07-06T02:06:23;17.40;62.00
53962;DHT22;39868;53.398;6.564;2022-07-06T02:08:50;17.40;62.20
53962;DHT22;39868;53.398;6.564;2022-07-06T02:11:19;17.30;62.10
53962;DHT22;39868;53.398;6.564;2022-07-06T02:13:46;17.30;61.90
53962;DHT22;39868;53.398;6.564;2022-07-06T02:16:14;17.30;61.90
53962;DHT22;39868;53.398;6.564;2022-07-06T02:18:41;17.30;61.90
53962;DHT22;39868;53.398;6.564;2022-07-06T02:21:09;17.20;61.80
53962;DHT22;39868;53.398;6.564;2022-07-06T02:23:37;17.20;62.10
53962;DHT22;39868;53.398;6.564;2022-07-06T02:26:04;17.20;62.30
53962;DHT22;39868;53.398;6.564;2022-07-06T02:28:33;17.20;62.20
53962;DHT22;39868;53.398;6.564;2022-07-06T02:31:04;17.20;62.20
53962;DHT22;39868;53.398;6.564;2022-07-06T02:33:31;17.20;62.20
53962;DHT22;39868;53.398;6.564;2022-07-06T02:35:59;17.10;62.20
53962;DHT22;39868;53.398;6.564;2022-07-06T02:38:26;17.10;62.10
53962;DHT22;39868;53.398;6.564;2022-07-06T02:40:56;17.10;62.00
53962;DHT22;39868;53.398;6.564;2022-07-06T02:43:23;17.10;62.30
53962;DHT22;39868;53.398;6.564;2022-07-06T02:45:51;17.10;62.40
53962;DHT22;39868;53.398;6.564;2022-07-06T02:48:18;17.00;62.40
53962;DHT22;39868;53.398;6.564;2022-07-06T02:50:50;17.00;62.10
53962;DHT22;39868;53.398;6.564;2022-07-06T02:53:18;17.00;62.30
53962;DHT22;39868;53.398;6.564;2022-07-06T02:55:49;17.00;62.40
53962;DHT22;39868;53.398;6.564;2022-07-06T02:58:16;17.00;62.40
53962;DHT22;39868;53.398;6.564;2022-07-06T03:00:44;16.90;62.30
53962;DHT22;39868;53.398;6.564;2022-07-06T03:03:12;16.90;62.30
53962;DHT22;39868;53.398;6.564;2022-07-06T03:05:39;16.90;62.30
53962;DHT22;39868;53.398;6.564;2022-07-06T03:08:07;16.90;62.40
53962;DHT22;39868;53.398;6.564;2022-07-06T03:10:35;16.90;62.60
53962;DHT22;39868;53.398;6.564;2022-07-06T03:13:03;16.90;62.70
53962;DHT22;39868;53.398;6.564;2022-07-06T03:15:30;16.80;62.90
53962;DHT22;39868;53.398;6.564;2022-07-06T03:17:58;16.80;63.60
53962;DHT22;39868;53.398;6.564;2022-07-06T03:20:26;16.80;62.90
53962;DHT22;39868;53.398;6.564;2022-07-06T03:22:54;16.80;62.80
53962;DHT22;39868;53.398;6.564;2022-07-06T03:25:22;16.80;62.70
53962;DHT22;39868;53.398;6.564;2022-07-06T03:27:50;16.80;62.80
53962;DHT22;39868;53.398;6.564;2022-07-06T03:30:18;16.70;62.80
53962;DHT22;39868;53.398;6.564;2022-07-06T03:32:52;16.70;62.90
53962;DHT22;39868;53.398;6.564;2022-07-06T03:35:20;16.70;63.10
53962;DHT22;39868;53.398;6.564;2022-07-06T03:37:50;16.70;63.20
53962;DHT22;39868;53.398;6.564;2022-07-06T03:40:19;16.60;63.40
53962;DHT22;39868;53.398;6.564;2022-07-06T03:42:49;16.60;63.60
53962;DHT22;39868;53.398;6.564;2022-07-06T03:45:16;16.60;63.60
53962;DHT22;39868;53.398;6.564;2022-07-06T03:47:45;16.60;63.70
53962;DHT22;39868;53.398;6.564;2022-07-06T03:50:13;16.60;63.90
53962;DHT22;39868;53.398;6.564;2022-07-06T03:52:40;16.60;64.10
53962;DHT22;39868;53.398;6.564;2022-07-06T03:55:09;16.60;64.40
53962;DHT22;39868;53.398;6.564;2022-07-06T03:57:41;16.60;64.40
53962;DHT22;39868;53.398;6.564;2022-07-06T04:00:13;16.60;64.40
53962;DHT22;39868;53.398;6.564;2022-07-06T04:02:43;16.60;64.50
53962;DHT22;39868;53.398;6.564;2022-07-06T04:05:17;16.70;64.70
53962;DHT22;39868;53.398;6.564;2022-07-06T04:07:50;16.70;64.70
53962;DHT22;39868;53.398;6.564;2022-07-06T04:10:19;16.70;64.70
53962;DHT22;39868;53.398;6.564;2022-07-06T04:12:47;16.70;64.70
53962;DHT22;39868;53.398;6.564;2022-07-06T04:15:17;16.80;64.90
53962;DHT22;39868;53.398;6.564;2022-07-06T04:17:45;16.80;64.90
53962;DHT22;39868;53.398;6.564;2022-07-06T04:20:26;16.80;65.00
53962;DHT22;39868;53.398;6.564;2022-07-06T04:22:55;16.80;65.20
53962;DHT22;39868;53.398;6.564;2022-07-06T04:25:24;16.90;65.60
53962;DHT22;39868;53.398;6.564;2022-07-06T04:27:54;16.90;65.70
53962;DHT22;39868;53.398;6.564;2022-07-06T04:30:22;17.00;65.70
53962;DHT22;39868;53.398;6.564;2022-07-06T04:32:49;17.00;65.60
53962;DHT22;39868;53.398;6.564;2022-07-06T04:35:17;17.00;65.30
53962;DHT22;39868;53.398;6.564;2022-07-06T04:37:47;17.00;65.00
53962;DHT22;39868;53.398;6.564;2022-07-06T04:40:17;17.10;64.90
53962;DHT22;39868;53.398;6.564;2022-07-06T04:42:49;17.10;64.70
53962;DHT22;39868;53.398;6.564;2022-07-06T04:45:17;17.10;64.70
53962;DHT22;39868;53.398;6.564;2022-07-06T04:47:44;17.10;64.70
53962;DHT22;39868;53.398;6.564;2022-07-06T04:50:13;17.20;64.90
53962;DHT22;39868;53.398;6.564;2022-07-06T04:52:42;17.20;64.90
53962;DHT22;39868;53.398;6.564;2022-07-06T04:55:10;17.30;64.80
53962;DHT22;39868;53.398;6.564;2022-07-06T04:57:37;17.30;64.70
53962;DHT22;39868;53.398;6.564;2022-07-06T05:00:06;17.30;64.60
53962;DHT22;39868;53.398;6.564;2022-07-06T05:02:34;17.30;64.60
53962;DHT22;39868;53.398;6.564;2022-07-06T05:05:02;17.40;64.60
53962;DHT22;39868;53.398;6.564;2022-07-06T05:07:30;17.40;64.60
53962;DHT22;39868;53.398;6.564;2022-07-06T05:10:00;17.40;64.70
53962;DHT22;39868;53.398;6.564;2022-07-06T05:12:30;17.40;64.70
53962;DHT22;39868;53.398;6.564;2022-07-06T05:14:57;17.50;64.80
53962;DHT22;39868;53.398;6.564;2022-07-06T05:17:26;17.50;64.70
53962;DHT22;39868;53.398;6.564;2022-07-06T05:19:58;17.50;64.60
53962;DHT22;39868;53.398;6.564;2022-07-06T05:22:26;17.50;64.50
53962;DHT22;39868;53.398;6.564;2022-07-06T05:24:53;17.50;64.50
53962;DHT22;39868;53.398;6.564;2022-07-06T05:27:21;17.50;64.50
53962;DHT22;39868;53.398;6.564;2022-07-06T05:29:49;17.50;64.50
53962;DHT22;39868;53.398;6.564;2022-07-06T05:32:17;17.50;64.50
53962;DHT22;39868;53.398;6.564;2022-07-06T05:34:45;17.50;64.60
53962;DHT22;39868;53.398;6.564;2022-07-06T05:37:12;17.50;64.70
53962;DHT22;39868;53.398;6.564;2022-07-06T05:39:41;17.50;64.90
53962;DHT22;39868;53.398;6.564;2022-07-06T05:42:12;17.50;65.10
53962;DHT22;39868;53.398;6.564;2022-07-06T05:44:40;17.50;65.10
53962;DHT22;39868;53.398;6.564;2022-07-06T05:47:08;17.60;65.10
53962;DHT22;39868;53.398;6.564;2022-07-06T05:50:06;17.60;65.30
53962;DHT22;39868;53.398;6.564;2022-07-06T05:52:54;17.60;65.30
53962;DHT22;39868;53.398;6.564;2022-07-06T05:55:22;17.60;65.40
53962;DHT22;39868;53.398;6.564;2022-07-06T05:57:50;17.70;65.70
53962;DHT22;39868;53.398;6.564;2022-07-06T06:00:18;17.70;65.80
53962;DHT22;39868;53.398;6.564;2022-07-06T06:02:51;17.70;65.80
53962;DHT22;39868;53.398;6.564;2022-07-06T06:05:20;17.70;65.90
53962;DHT22;39868;53.398;6.564;2022-07-06T06:07:55;17.70;65.70
53962;DHT22;39868;53.398;6.564;2022-07-06T06:10:24;17.70;65.50
53962;DHT22;39868;53.398;6.564;2022-07-06T06:12:56;17.70;65.50
53962;DHT22;39868;53.398;6.564;2022-07-06T06:15:23;17.70;65.20
53962;DHT22;39868;53.398;6.564;2022-07-06T06:17:51;17.70;65.30
53962;DHT22;39868;53.398;6.564;2022-07-06T06:20:18;17.80;65.40
53962;DHT22;39868;53.398;6.564;2022-07-06T06:25:15;17.80;65.00
53962;DHT22;39868;53.398;6.564;2022-07-06T06:27:43;17.80;64.90
53962;DHT22;39868;53.398;6.564;2022-07-06T06:30:11;17.90;65.00
53962;DHT22;39868;53.398;6.564;2022-07-06T06:32:39;17.90;64.70
53962;DHT22;39868;53.398;6.564;2022-07-06T06:35:07;17.90;64.70
53962;DHT22;39868;53.398;6.564;2022-07-06T06:37:34;17.90;64.30
53962;DHT22;39868;53.398;6.564;2022-07-06T06:40:03;18.00;64.30
53962;DHT22;39868;53.398;6.564;2022-07-06T06:42:31;18.00;64.40
53962;DHT22;39868;53.398;6.564;2022-07-06T06:44:59;18.00;64.40
53962;DHT22;39868;53.398;6.564;2022-07-06T06:47:27;18.00;64.30
53962;DHT22;39868;53.398;6.564;2022-07-06T06:49:54;18.00;64.10
53962;DHT22;39868;53.398;6.564;2022-07-06T06:52:21;18.10;63.90
53962;DHT22;39868;53.398;6.564;2022-07-06T06:55:07;18.10;64.10
53962;DHT22;39868;53.398;6.564;2022-07-06T06:57:34;18.20;64.20
53962;DHT22;39868;53.398;6.564;2022-07-06T07:00:03;18.20;63.60
53962;DHT22;39868;53.398;6.564;2022-07-06T07:02:31;18.30;63.50
53962;DHT22;39868;53.398;6.564;2022-07-06T07:04:59;18.30;63.60
53962;DHT22;39868;53.398;6.564;2022-07-06T07:07:26;18.30;63.80
53962;DHT22;39868;53.398;6.564;2022-07-06T07:09:53;18.40;63.50
53962;DHT22;39868;53.398;6.564;2022-07-06T07:12:21;18.40;63.40
53962;DHT22;39868;53.398;6.564;2022-07-06T07:14:48;18.50;63.40
53962;DHT22;39868;53.398;6.564;2022-07-06T07:17:16;18.50;63.60
53962;DHT22;39868;53.398;6.564;2022-07-06T07:19:43;18.60;63.20
53962;DHT22;39868;53.398;6.564;2022-07-06T07:22:10;18.60;63.00
53962;DHT22;39868;53.398;6.564;2022-07-06T07:24:38;18.70;62.10
53962;DHT22;39868;53.398;6.564;2022-07-06T07:27:05;18.80;61.70
53962;DHT22;39868;53.398;6.564;2022-07-06T07:29:33;18.80;62.00
53962;DHT22;39868;53.398;6.564;2022-07-06T07:32:00;18.80;62.30
53962;DHT22;39868;53.398;6.564;2022-07-06T07:34:28;18.90;61.60
53962;DHT22;39868;53.398;6.564;2022-07-06T07:36:55;19.00;61.20
53962;DHT22;39868;53.398;6.564;2022-07-06T07:39:23;19.00;61.60
53962;DHT22;39868;53.398;6.564;2022-07-06T07:41:50;19.10;61.70
53962;DHT22;39868;53.398;6.564;2022-07-06T07:44:18;19.20;62.30
53962;DHT22;39868;53.398;6.564;2022-07-06T07:46:46;19.30;62.20
53962;DHT22;39868;53.398;6.564;2022-07-06T07:49:13;19.30;61.50
53962;DHT22;39868;53.398;6.564;2022-07-06T07:51:50;19.30;61.50
53962;DHT22;39868;53.398;6.564;2022-07-06T07:54:18;19.40;61.30
53962;DHT22;39868;53.398;6.564;2022-07-06T07:56:45;19.40;61.40
53962;DHT22;39868;53.398;6.564;2022-07-06T07:59:13;19.40;60.70
53962;DHT22;39868;53.398;6.564;2022-07-06T08:01:41;19.40;60.60
53962;DHT22;39868;53.398;6.564;2022-07-06T08:04:09;19.50;60.70
53962;DHT22;39868;53.398;6.564;2022-07-06T08:06:36;19.50;60.10
53962;DHT22;39868;53.398;6.564;2022-07-06T08:09:04;19.50;59.80
53962;DHT22;39868;53.398;6.564;2022-07-06T08:11:34;19.60;59.30
53962;DHT22;39868;53.398;6.564;2022-07-06T08:14:03;19.60;60.00
53962;DHT22;39868;53.398;6.564;2022-07-06T08:16:31;19.60;60.10
53962;DHT22;39868;53.398;6.564;2022-07-06T08:18:58;19.60;60.20
53962;DHT22;39868;53.398;6.564;2022-07-06T08:21:26;19.70;59.30
53962;DHT22;39868;53.398;6.564;2022-07-06T08:23:55;19.70;59.50
53962;DHT22;39868;53.398;6.564;2022-07-06T08:26:22;19.70;58.20
53962;DHT22;39868;53.398;6.564;2022-07-06T08:28:50;19.70;58.30
53962;DHT22;39868;53.398;6.564;2022-07-06T08:31:17;19.70;58.90
53962;DHT22;39868;53.398;6.564;2022-07-06T08:34:05;19.70;59.10
53962;DHT22;39868;53.398;6.564;2022-07-06T08:36:32;19.80;59.10
53962;DHT22;39868;53.398;6.564;2022-07-06T08:38:59;19.80;59.00
53962;DHT22;39868;53.398;6.564;2022-07-06T08:41:29;19.80;59.20
53962;DHT22;39868;53.398;6.564;2022-07-06T08:43:57;19.90;58.80
53962;DHT22;39868;53.398;6.564;2022-07-06T08:46:27;19.90;58.50
53962;DHT22;39868;53.398;6.564;2022-07-06T08:48:56;19.90;58.30
53962;DHT22;39868;53.398;6.564;2022-07-06T08:51:25;20.00;58.30
53962;DHT22;39868;53.398;6.564;2022-07-06T08:53:56;20.00;57.00
53962;DHT22;39868;53.398;6.564;2022-07-06T08:56:25;20.10;57.40
53962;DHT22;39868;53.398;6.564;2022-07-06T08:58:53;20.10;58.30
53962;DHT22;39868;53.398;6.564;2022-07-06T09:01:21;20.10;58.90
53962;DHT22;39868;53.398;6.564;2022-07-06T09:03:50;20.20;58.00
53962;DHT22;39868;53.398;6.564;2022-07-06T09:06:22;20.30;57.90
53962;DHT22;39868;53.398;6.564;2022-07-06T09:08:54;20.30;58.10
53962;DHT22;39868;53.398;6.564;2022-07-06T09:11:22;20.30;59.00
53962;DHT22;39868;53.398;6.564;2022-07-06T09:13:51;20.40;58.90
53962;DHT22;39868;53.398;6.564;2022-07-06T09:16:26;20.40;57.70
53962;DHT22;39868;53.398;6.564;2022-07-06T09:19:06;20.50;57.90
53962;DHT22;39868;53.398;6.564;2022-07-06T09:21:34;20.60;57.90
53962;DHT22;39868;53.398;6.564;2022-07-06T09:24:10;20.60;59.00
53962;DHT22;39868;53.398;6.564;2022-07-06T09:26:39;20.60;58.70
53962;DHT22;39868;53.398;6.564;2022-07-06T09:29:08;20.60;58.40
53962;DHT22;39868;53.398;6.564;2022-07-06T09:31:37;20.60;58.80
53962;DHT22;39868;53.398;6.564;2022-07-06T09:34:06;20.60;58.60
53962;DHT22;39868;53.398;6.564;2022-07-06T09:36:44;20.60;58.50
53962;DHT22;39868;53.398;6.564;2022-07-06T09:39:19;20.60;58.40
53962;DHT22;39868;53.398;6.564;2022-07-06T09:41:48;20.70;60.00
53962;DHT22;39868;53.398;6.564;2022-07-06T09:44:29;20.70;58.90
53962;DHT22;39868;53.398;6.564;2022-07-06T09:46:59;20.80;59.80
53962;DHT22;39868;53.398;6.564;2022-07-06T09:49:27;20.80;58.80
53962;DHT22;39868;53.398;6.564;2022-07-06T09:51:59;20.90;58.60
53962;DHT22;39868;53.398;6.564;2022-07-06T09:54:26;20.90;58.60
53962;DHT22;39868;53.398;6.564;2022-07-06T09:56:55;20.90;59.00
53962;DHT22;39868;53.398;6.564;2022-07-06T09:59:28;20.90;57.60
53962;DHT22;39868;53.398;6.564;2022-07-06T10:01:57;20.90;58.00
53962;DHT22;39868;53.398;6.564;2022-07-06T10:04:27;20.90;58.60
53962;DHT22;39868;53.398;6.564;2022-07-06T10:06:56;20.90;59.10
53962;DHT22;39868;53.398;6.564;2022-07-06T10:09:26;20.90;59.50
53962;DHT22;39868;53.398;6.564;2022-07-06T10:11:58;20.90;59.10
53962;DHT22;39868;53.398;6.564;2022-07-06T10:14:32;20.90;59.70
53962;DHT22;39868;53.398;6.564;2022-07-06T10:17:12;21.00;60.10
53962;DHT22;39868;53.398;6.564;2022-07-06T10:19:47;21.10;59.50
53962;DHT22;39868;53.398;6.564;2022-07-06T10:22:22;21.20;58.30
53962;DHT22;39868;53.398;6.564;2022-07-06T10:24:50;21.20;58.20
53962;DHT22;39868;53.398;6.564;2022-07-06T10:27:18;21.30;58.20
53962;DHT22;39868;53.398;6.564;2022-07-06T10:29:46;21.30;58.80
53962;DHT22;39868;53.398;6.564;2022-07-06T10:32:13;21.40;58.60
53962;DHT22;39868;53.398;6.564;2022-07-06T10:34:46;21.50;58.30
53962;DHT22;39868;53.398;6.564;2022-07-06T10:37:24;21.60;57.10
53962;DHT22;39868;53.398;6.564;2022-07-06T10:39:53;21.60;57.10
53962;DHT22;39868;53.398;6.564;2022-07-06T10:42:43;21.60;56.90
53962;DHT22;39868;53.398;6.564;2022-07-06T10:45:19;21.60;57.20
53962;DHT22;39868;53.398;6.564;2022-07-06T10:50:49;21.60;57.20
53962;DHT22;39868;53.398;6.564;2022-07-06T10:53:32;21.60;57.30
53962;DHT22;39868;53.398;6.564;2022-07-06T10:56:05;21.70;58.00
53962;DHT22;39868;53.398;6.564;2022-07-06T11:01:13;21.80;57.10
53962;DHT22;39868;53.398;6.564;2022-07-06T11:03:43;21.90;56.20
53962;DHT22;39868;53.398;6.564;2022-07-06T11:06:17;21.90;56.30
53962;DHT22;39868;53.398;6.564;2022-07-06T11:11:37;22.00;56.20
53962;DHT22;39868;53.398;6.564;2022-07-06T11:14:16;22.00;55.50
53962;DHT22;39868;53.398;6.564;2022-07-06T11:19:22;22.10;55.60
53962;DHT22;39868;53.398;6.564;2022-07-06T11:21:58;22.20;55.90
53962;DHT22;39868;53.398;6.564;2022-07-06T11:24:34;22.30;56.80
53962;DHT22;39868;53.398;6.564;2022-07-06T11:27:02;22.40;55.70
53962;DHT22;39868;53.398;6.564;2022-07-06T11:29:37;22.50;56.00
53962;DHT22;39868;53.398;6.564;2022-07-06T11:32:14;22.50;55.40
53962;DHT22;39868;53.398;6.564;2022-07-06T11:34:43;22.50;55.10
53962;DHT22;39868;53.398;6.564;2022-07-06T11:37:12;22.60;55.30
53962;DHT22;39868;53.398;6.564;2022-07-06T11:39:44;22.60;56.20
53962;DHT22;39868;53.398;6.564;2022-07-06T11:42:14;22.60;54.50
53962;DHT22;39868;53.398;6.564;2022-07-06T11:44:43;22.60;54.30
53962;DHT22;39868;53.398;6.564;2022-07-06T11:47:11;22.70;54.80
53962;DHT22;39868;53.398;6.564;2022-07-06T11:49:40;22.70;54.20
53962;DHT22;39868;53.398;6.564;2022-07-06T11:52:09;22.70;54.70
53962;DHT22;39868;53.398;6.564;2022-07-06T11:54:38;22.70;54.10
53962;DHT22;39868;53.398;6.564;2022-07-06T11:57:08;22.60;54.30
53962;DHT22;39868;53.398;6.564;2022-07-06T11:59:38;22.60;53.70
53962;DHT22;39868;53.398;6.564;2022-07-06T12:02:10;22.60;53.70
53962;DHT22;39868;53.398;6.564;2022-07-06T12:04:41;22.50;53.40
53962;DHT22;39868;53.398;6.564;2022-07-06T12:07:14;22.60;54.30
53962;DHT22;39868;53.398;6.564;2022-07-06T12:09:46;22.60;54.40
53962;DHT22;39868;53.398;6.564;2022-07-06T12:12:14;22.50;54.40
53962;DHT22;39868;53.398;6.564;2022-07-06T12:14:43;22.50;54.90
53962;DHT22;39868;53.398;6.564;2022-07-06T12:17:13;22.50;54.30
53962;DHT22;39868;53.398;6.564;2022-07-06T12:19:42;22.60;53.90
53962;DHT22;39868;53.398;6.564;2022-07-06T12:22:10;22.60;54.60
53962;DHT22;39868;53.398;6.564;2022-07-06T12:24:42;22.60;53.30
53962;DHT22;39868;53.398;6.564;2022-07-06T12:27:18;22.70;54.10
53962;DHT22;39868;53.398;6.564;2022-07-06T12:29:47;22.70;53.70
53962;DHT22;39868;53.398;6.564;2022-07-06T12:32:23;22.80;54.40
53962;DHT22;39868;53.398;6.564;2022-07-06T12:35:06;22.90;54.00
53962;DHT22;39868;53.398;6.564;2022-07-06T12:37:34;22.90;54.40
53962;DHT22;39868;53.398;6.564;2022-07-06T12:40:02;23.00;53.80
53962;DHT22;39868;53.398;6.564;2022-07-06T12:42:46;23.00;52.80
53962;DHT22;39868;53.398;6.564;2022-07-06T12:45:14;23.00;53.50
53962;DHT22;39868;53.398;6.564;2022-07-06T12:47:57;23.00;53.40
53962;DHT22;39868;53.398;6.564;2022-07-06T12:50:32;23.00;53.50
53962;DHT22;39868;53.398;6.564;2022-07-06T12:53:04;23.00;53.00
53962;DHT22;39868;53.398;6.564;2022-07-06T12:55:32;23.00;52.70
53962;DHT22;39868;53.398;6.564;2022-07-06T12:58:00;22.90;53.30
53962;DHT22;39868;53.398;6.564;2022-07-06T13:00:27;22.90;53.00
53962;DHT22;39868;53.398;6.564;2022-07-06T13:02:55;22.90;52.90
53962;DHT22;39868;53.398;6.564;2022-07-06T13:05:39;22.80;53.40
53962;DHT22;39868;53.398;6.564;2022-07-06T13:08:06;22.80;52.90
53962;DHT22;39868;53.398;6.564;2022-07-06T13:10:36;22.80;52.70
53962;DHT22;39868;53.398;6.564;2022-07-06T13:13:08;22.80;52.20
53962;DHT22;39868;53.398;6.564;2022-07-06T13:15:35;22.70;52.50
53962;DHT22;39868;53.398;6.564;2022-07-06T13:18:03;22.70;52.80
53962;DHT22;39868;53.398;6.564;2022-07-06T13:20:37;22.70;52.80
53962;DHT22;39868;53.398;6.564;2022-07-06T13:23:04;22.70;52.70
53962;DHT22;39868;53.398;6.564;2022-07-06T13:25:32;22.70;52.40
53962;DHT22;39868;53.398;6.564;2022-07-06T13:27:59;22.60;52.60
53962;DHT22;39868;53.398;6.564;2022-07-06T13:30:27;22.60;52.70
53962;DHT22;39868;53.398;6.564;2022-07-06T13:32:56;22.60;53.20
53962;DHT22;39868;53.398;6.564;2022-07-06T13:35:24;22.60;53.90
53962;DHT22;39868;53.398;6.564;2022-07-06T13:37:51;22.50;53.70
53962;DHT22;39868;53.398;6.564;2022-07-06T13:40:19;22.50;53.60
53962;DHT22;39868;53.398;6.564;2022-07-06T13:42:46;22.60;53.20
53962;DHT22;39868;53.398;6.564;2022-07-06T13:45:14;22.50;53.30
53962;DHT22;39868;53.398;6.564;2022-07-06T13:47:42;22.40;52.90
53962;DHT22;39868;53.398;6.564;2022-07-06T13:50:09;22.40;53.10
53962;DHT22;39868;53.398;6.564;2022-07-06T13:52:38;22.40;52.90
53962;DHT22;39868;53.398;6.564;2022-07-06T13:55:06;22.30;53.00
53962;DHT22;39868;53.398;6.564;2022-07-06T13:57:34;22.20;52.30
53962;DHT22;39868;53.398;6.564;2022-07-06T14:00:03;22.20;52.30
53962;DHT22;39868;53.398;6.564;2022-07-06T14:02:34;22.20;52.90
53962;DHT22;39868;53.398;6.564;2022-07-06T14:05:02;22.00;52.60
53962;DHT22;39868;53.398;6.564;2022-07-06T14:07:30;22.00;52.80
53962;DHT22;39868;53.398;6.564;2022-07-06T14:09:57;21.90;53.10
53962;DHT22;39868;53.398;6.564;2022-07-06T14:12:25;21.90;52.50
53962;DHT22;39868;53.398;6.564;2022-07-06T14:14:53;21.80;52.40
53962;DHT22;39868;53.398;6.564;2022-07-06T14:17:21;21.80;52.50
53962;DHT22;39868;53.398;6.564;2022-07-06T14:19:49;21.70;52.70
53962;DHT22;39868;53.398;6.564;2022-07-06T14:22:17;21.70;52.90
53962;DHT22;39868;53.398;6.564;2022-07-06T14:24:45;21.70;53.00
53962;DHT22;39868;53.398;6.564;2022-07-06T14:27:12;21.60;53.00
53962;DHT22;39868;53.398;6.564;2022-07-06T14:29:40;21.60;53.20
53962;DHT22;39868;53.398;6.564;2022-07-06T14:32:07;21.60;53.10
53962;DHT22;39868;53.398;6.564;2022-07-06T14:34:35;21.50;53.20
53962;DHT22;39868;53.398;6.564;2022-07-06T14:37:03;21.40;53.20
53962;DHT22;39868;53.398;6.564;2022-07-06T14:39:30;21.40;53.60
53962;DHT22;39868;53.398;6.564;2022-07-06T14:41:58;21.30;53.70
53962;DHT22;39868;53.398;6.564;2022-07-06T14:44:25;21.30;54.10
53962;DHT22;39868;53.398;6.564;2022-07-06T14:46:53;21.20;54.40
53962;DHT22;39868;53.398;6.564;2022-07-06T14:49:21;21.20;54.80
53962;DHT22;39868;53.398;6.564;2022-07-06T14:51:49;21.10;55.20
53962;DHT22;39868;53.398;6.564;2022-07-06T14:54:16;21.10;55.60
53962;DHT22;39868;53.398;6.564;2022-07-06T14:56:44;21.00;55.90
53962;DHT22;39868;53.398;6.564;2022-07-06T14:59:11;20.90;56.20
53962;DHT22;39868;53.398;6.564;2022-07-06T15:01:51;20.80;56.70
53962;DHT22;39868;53.398;6.564;2022-07-06T15:04:19;20.80;56.60
53962;DHT22;39868;53.398;6.564;2022-07-06T15:06:47;20.70;56.90
53962;DHT22;39868;53.398;6.564;2022-07-06T15:09:23;20.70;56.70
53962;DHT22;39868;53.398;6.564;2022-07-06T15:11:52;20.60;57.00
53962;DHT22;39868;53.398;6.564;2022-07-06T15:14:19;20.60;57.10
53962;DHT22;39868;53.398;6.564;2022-07-06T15:16:47;20.50;57.30
53962;DHT22;39868;53.398;6.564;2022-07-06T15:19:16;20.50;57.30
53962;DHT22;39868;53.398;6.564;2022-07-06T15:21:43;20.40;57.60
53962;DHT22;39868;53.398;6.564;2022-07-06T15:24:10;20.40;57.60
53962;DHT22;39868;53.398;6.564;2022-07-06T15:26:38;20.40;57.70
53962;DHT22;39868;53.398;6.564;2022-07-06T15:29:05;20.40;57.90
53962;DHT22;39868;53.398;6.564;2022-07-06T15:31:32;20.40;58.00
53962;DHT22;39868;53.398;6.564;2022-07-06T15:34:00;20.40;58.50
53962;DHT22;39868;53.398;6.564;2022-07-06T15:36:27;20.30;58.90
53962;DHT22;39868;53.398;6.564;2022-07-06T15:38:54;20.30;59.20
53962;DHT22;39868;53.398;6.564;2022-07-06T15:41:22;20.30;59.80
53962;DHT22;39868;53.398;6.564;2022-07-06T15:43:50;20.30;60.30
53962;DHT22;39868;53.398;6.564;2022-07-06T15:46:21;20.20;60.50
53962;DHT22;39868;53.398;6.564;2022-07-06T15:48:56;20.20;60.70
53962;DHT22;39868;53.398;6.564;2022-07-06T15:51:24;20.10;61.10
53962;DHT22;39868;53.398;6.564;2022-07-06T15:53:51;20.10;61.20
53962;DHT22;39868;53.398;6.564;2022-07-06T15:56:19;20.10;61.30